Time;durP1;ratioP1;P1;durP2;ratioP2;P2;SDS_P1;SDS_P2;PMS_P1;PMS_P2;Temp;Humidity;BMP_temperature;BMP_pressure;BME280_temperature;BME280_humidity;BME280_pressure;Samples;Min_cycle;Max_cycle;Signal;HPM_P1;HPM_P2
2021/12/02 00:02:56;;;;;;;11.60;5.87;;;7.30;99.90;;;;;;10426740;28;20372;-87
2021/12/02 00:07:56;;;;;;;10.70;5.17;;;7.30;99.90;;;;;;10436211;28;20037;-86
2021/12/02 00:13:01;;;;;;;12.83;6.60;;;7.20;99.90;;;;;;10443291;28;20055;-86
2021/12/02 00:23:27;;;;;;;11.70;5.17;;;7.10;99.90;;;;;;10450088;28;20491;-86
2021/12/02 00:28:30;;;;;;;10.90;6.03;;;7.00;99.90;;;;;;10450045;28;20056;-88
2021/12/02 00:33:32;;;;;;;12.40;4.53;;;7.00;99.90;;;;;;10430503;28;20029;-85
2021/12/02 00:38:33;;;;;;;11.90;5.13;;;7.10;99.90;;;;;;10430059;28;20036;-84
2021/12/02 00:43:34;;;;;;;10.40;5.50;;;7.10;99.90;;;;;;10448695;28;20064;-87
2021/12/02 00:48:36;;;;;;;10.50;4.90;;;7.10;99.90;;;;;;10430523;28;20033;-85
2021/12/02 00:53:46;;;;;;;8.33;4.10;;;7.20;99.90;;;;;;10448487;28;20025;-85
2021/12/02 00:58:49;;;;;;;10.40;5.47;;;7.20;99.90;;;;;;10449476;28;20067;-87
2021/12/02 01:03:58;;;;;;;9.43;4.73;;;7.20;99.90;;;;;;10430287;28;20028;-85
2021/12/02 01:08:58;;;;;;;8.60;4.27;;;7.20;99.90;;;;;;10430538;28;20021;-86
2021/12/02 01:14:00;;;;;;;7.77;4.70;;;7.30;99.90;;;;;;10448953;28;20033;-85
2021/12/02 01:19:02;;;;;;;7.60;4.50;;;7.30;99.90;;;;;;10431169;28;20121;-85
2021/12/02 01:24:05;;;;;;;10.13;4.97;;;7.30;99.90;;;;;;10448214;28;20080;-84
2021/12/02 01:29:05;;;;;;;7.97;4.50;;;7.30;99.90;;;;;;10448944;28;20025;-85
2021/12/02 01:34:07;;;;;;;7.27;4.47;;;7.30;99.90;;;;;;10448615;28;20039;-85
2021/12/02 01:39:09;;;;;;;10.50;5.80;;;7.30;99.90;;;;;;10447490;28;20033;-86
2021/12/02 01:44:12;;;;;;;17.03;8.80;;;7.30;99.90;;;;;;10447874;28;20052;-84
2021/12/02 01:49:13;;;;;;;12.53;7.50;;;7.20;99.90;;;;;;10452743;28;20134;-86
2021/12/02 01:54:15;;;;;;;22.33;11.10;;;7.20;99.90;;;;;;10454928;28;20033;-86
2021/12/02 01:59:19;;;;;;;16.70;8.10;;;7.20;99.90;;;;;;10437410;28;20032;-84
2021/12/02 02:04:21;;;;;;;13.50;7.80;;;7.20;99.90;;;;;;10454282;28;20086;-85
2021/12/02 02:09:25;;;;;;;9.90;6.23;;;7.10;99.90;;;;;;10455075;28;20025;-86
2021/12/02 02:14:27;;;;;;;10.27;5.17;;;7.10;99.90;;;;;;10454714;28;20504;-85
2021/12/02 02:19:31;;;;;;;9.13;4.83;;;7.10;99.90;;;;;;10455128;28;20047;-85
2021/12/02 02:24:31;;;;;;;7.70;4.53;;;7.10;99.90;;;;;;10453323;28;20095;-85
2021/12/02 02:29:32;;;;;;;7.93;4.90;;;7.00;99.90;;;;;;10429632;28;20083;-85
2021/12/02 02:34:33;;;;;;;7.27;4.43;;;7.00;99.90;;;;;;10451841;28;20044;-85
2021/12/02 02:39:35;;;;;;;8.07;4.80;;;7.00;99.90;;;;;;10453030;28;20043;-86
2021/12/02 02:44:37;;;;;;;8.50;5.13;;;7.00;99.90;;;;;;10453206;28;20041;-85
2021/12/02 02:49:37;;;;;;;8.97;5.23;;;7.00;99.90;;;;;;10434181;28;20087;-84
2021/12/02 02:54:38;;;;;;;8.80;5.10;;;7.00;99.90;;;;;;10454018;28;20075;-85
2021/12/02 03:00:00;;;;;;;9.57;5.63;;;7.00;99.90;;;;;;10453290;28;20086;-85
2021/12/02 03:10:32;;;;;;;6.33;4.10;;;7.00;99.90;;;;;;10451961;28;20071;-84
2021/12/02 03:20:53;;;;;;;7.17;4.10;;;6.90;99.90;;;;;;10451476;28;20036;-86
2021/12/02 03:25:54;;;;;;;6.70;4.10;;;6.90;99.90;;;;;;10452338;28;20661;-84
2021/12/02 03:30:54;;;;;;;5.83;4.10;;;7.00;99.90;;;;;;10451069;28;20025;-85
2021/12/02 03:35:55;;;;;;;6.37;4.00;;;7.00;99.90;;;;;;10450948;28;20025;-85
2021/12/02 03:40:55;;;;;;;8.93;4.60;;;7.00;99.90;;;;;;10451216;28;20036;-85
2021/12/02 03:45:56;;;;;;;6.53;3.90;;;7.00;99.90;;;;;;10432929;28;20036;-83
2021/12/02 03:50:57;;;;;;;6.87;4.30;;;7.00;99.90;;;;;;10450397;28;20124;-85
2021/12/02 03:55:58;;;;;;;6.33;4.00;;;7.10;99.90;;;;;;10451345;28;20103;-86
2021/12/02 04:00:59;;;;;;;6.10;3.73;;;7.10;99.90;;;;;;10465729;28;20040;-84
2021/12/02 04:06:00;;;;;;;5.03;3.73;;;7.10;99.90;;;;;;10475245;28;20369;-84
2021/12/02 04:11:17;;;;;;;5.23;3.50;;;7.10;99.90;;;;;;10449197;28;20888;-84
2021/12/02 04:16:20;;;;;;;4.33;3.20;;;7.10;99.90;;;;;;10449487;28;20065;-86
2021/12/02 04:21:20;;;;;;;5.30;3.00;;;7.10;99.90;;;;;;10448701;28;20183;-86
2021/12/02 04:26:21;;;;;;;5.40;2.90;;;7.10;99.90;;;;;;10432400;28;20059;-87
2021/12/02 04:31:22;;;;;;;5.43;3.40;;;7.10;99.90;;;;;;10431254;28;20071;-83
2021/12/02 04:36:22;;;;;;;5.90;3.50;;;7.10;99.90;;;;;;10448100;28;20024;-85
2021/12/02 04:41:23;;;;;;;6.00;3.60;;;7.10;99.90;;;;;;10429878;28;20033;-86
2021/12/02 04:46:24;;;;;;;7.10;3.90;;;7.10;99.90;;;;;;10447283;28;20044;-87
2021/12/02 04:51:25;;;;;;;5.97;3.97;;;7.00;99.90;;;;;;10449920;28;20017;-86
2021/12/02 04:56:25;;;;;;;8.77;4.40;;;7.00;99.90;;;;;;10431126;28;20476;-86
2021/12/02 05:01:26;;;;;;;7.90;4.20;;;7.00;99.90;;;;;;10449385;28;20029;-86
2021/12/02 05:06:27;;;;;;;8.40;4.73;;;6.90;99.90;;;;;;10430792;28;20035;-85
2021/12/02 05:11:27;;;;;;;9.27;4.90;;;6.90;99.90;;;;;;10448891;28;20032;-85
2021/12/02 05:16:28;;;;;;;14.77;7.00;;;6.80;99.90;;;;;;10435347;28;20017;-85
2021/12/02 05:21:29;;;;;;;11.13;5.50;;;6.80;99.90;;;;;;10430132;28;20036;-85
2021/12/02 05:26:29;;;;;;;13.07;6.07;;;6.70;99.90;;;;;;10437487;28;20036;-85
2021/12/02 05:31:30;;;;;;;8.63;5.13;;;6.60;99.90;;;;;;10446136;28;20037;-85
2021/12/02 05:36:31;;;;;;;10.60;5.53;;;6.60;99.90;;;;;;10426393;28;20690;-85
2021/12/02 05:41:32;;;;;;;9.30;5.00;;;6.50;99.90;;;;;;10443394;28;20044;-86
2021/12/02 05:46:32;;;;;;;9.87;5.47;;;6.50;99.90;;;;;;10429744;28;20041;-84
2021/12/02 05:51:33;;;;;;;12.80;6.33;;;6.40;99.90;;;;;;10394486;28;20151;-85
2021/12/02 05:56:34;;;;;;;8.93;5.23;;;6.40;99.90;;;;;;10416807;28;20055;-85
2021/12/02 06:01:37;;;;;;;7.73;4.67;;;6.40;99.90;;;;;;10412864;28;20037;-84
2021/12/02 06:06:38;;;;;;;10.40;4.37;;;6.30;99.90;;;;;;10411044;28;20024;-84
2021/12/02 06:11:38;;;;;;;10.10;4.47;;;6.30;99.90;;;;;;10410680;28;20440;-87
2021/12/02 06:16:40;;;;;;;10.40;5.10;;;6.30;99.90;;;;;;10411941;28;20034;-86
2021/12/02 06:21:40;;;;;;;10.97;5.70;;;6.20;99.90;;;;;;10396012;28;20492;-85
2021/12/02 06:26:41;;;;;;;11.27;6.23;;;6.20;99.90;;;;;;10412912;28;20057;-85
2021/12/02 06:31:42;;;;;;;18.53;7.80;;;6.10;99.90;;;;;;10413177;28;20163;-85
2021/12/02 06:36:42;;;;;;;13.00;6.73;;;6.10;99.90;;;;;;10412618;28;20037;-85
2021/12/02 06:41:43;;;;;;;12.47;6.53;;;6.10;99.90;;;;;;10413714;28;20689;-85
2021/12/02 06:46:44;;;;;;;15.87;7.67;;;6.10;99.90;;;;;;10412675;28;20033;-85
2021/12/02 06:51:44;;;;;;;12.97;7.53;;;6.10;99.90;;;;;;10416731;28;20035;-86
2021/12/02 06:56:45;;;;;;;16.00;7.13;;;6.10;99.90;;;;;;10453883;28;20033;-85
2021/12/02 07:01:46;;;;;;;18.20;8.37;;;6.10;99.90;;;;;;10452643;28;20039;-85
2021/12/02 07:06:47;;;;;;;30.17;12.43;;;6.20;99.90;;;;;;10453008;28;20037;-85
2021/12/02 07:11:48;;;;;;;15.80;6.83;;;6.30;99.90;;;;;;10452718;28;20477;-85
2021/12/02 07:16:49;;;;;;;18.37;9.40;;;6.30;99.90;;;;;;10411210;28;20021;-85
2021/12/02 07:21:50;;;;;;;13.30;5.73;;;6.40;99.90;;;;;;10411277;28;20076;-85
2021/12/02 07:26:50;;;;;;;11.27;6.20;;;6.40;99.90;;;;;;10410556;28;20460;-86
2021/12/02 07:31:53;;;;;;;14.53;6.40;;;6.50;99.90;;;;;;10411726;28;20029;-85
2021/12/02 07:36:56;;;;;;;17.47;8.33;;;6.50;99.90;;;;;;10410987;28;20089;-86
2021/12/02 07:41:57;;;;;;;15.17;8.00;;;6.50;99.90;;;;;;10410269;28;20068;-85
2021/12/02 07:46:58;;;;;;;20.90;9.00;;;6.50;99.90;;;;;;10409390;28;20065;-85
2021/12/02 07:52:01;;;;;;;18.27;8.57;;;6.40;99.90;;;;;;10392060;28;20037;-86
2021/12/02 07:57:02;;;;;;;15.60;8.10;;;6.30;99.90;;;;;;10392296;28;20061;-86
2021/12/02 08:02:03;;;;;;;42.10;17.27;;;6.10;99.90;;;;;;10409583;28;20480;-86
2021/12/02 08:07:04;;;;;;;21.10;10.87;;;5.90;99.90;;;;;;10409344;28;20035;-86
2021/12/02 08:12:05;;;;;;;30.17;14.33;;;5.90;99.90;;;;;;10410776;28;20026;-86
2021/12/02 08:17:06;;;;;;;38.63;17.47;;;5.90;99.90;;;;;;10409704;28;20499;-85
2021/12/02 08:22:06;;;;;;;27.00;11.67;;;6.00;99.90;;;;;;10409019;28;20037;-85
2021/12/02 08:27:07;;;;;;;19.73;10.03;;;6.00;99.90;;;;;;10408482;28;20049;-85
2021/12/02 08:32:08;;;;;;;17.00;9.40;;;6.10;99.90;;;;;;10409268;28;20112;-85
2021/12/02 08:37:10;;;;;;;20.17;10.43;;;6.10;99.90;;;;;;10408759;28;20385;-86
2021/12/02 08:42:11;;;;;;;15.27;7.50;;;6.20;99.90;;;;;;10408146;28;20041;-84
2021/12/02 08:47:12;;;;;;;15.97;7.73;;;6.20;99.90;;;;;;10408517;28;20030;-86
2021/12/02 08:52:13;;;;;;;12.67;6.90;;;6.30;99.90;;;;;;10416411;28;20480;-86
2021/12/02 08:57:13;;;;;;;13.87;7.07;;;6.30;99.90;;;;;;10412114;28;20428;-84
2021/12/02 09:02:15;;;;;;;14.87;7.30;;;6.50;99.90;;;;;;10417153;28;20029;-85
2021/12/02 09:07:16;;;;;;;11.90;7.07;;;6.60;99.90;;;;;;10398819;28;20064;-86
2021/12/02 09:12:16;;;;;;;15.47;7.37;;;6.70;99.90;;;;;;10416361;28;20049;-85
2021/12/02 09:17:18;;;;;;;27.27;12.43;;;6.80;99.90;;;;;;10416256;28;20525;-85
2021/12/02 09:22:19;;;;;;;34.27;16.03;;;6.90;99.90;;;;;;10398720;28;20034;-85
2021/12/02 09:27:19;;;;;;;17.33;7.67;;;6.90;99.90;;;;;;10397898;28;20496;-85
2021/12/02 09:32:20;;;;;;;24.70;11.63;;;7.00;99.90;;;;;;10415539;28;20028;-86
2021/12/02 09:37:21;;;;;;;19.43;9.10;;;7.00;99.90;;;;;;10443053;28;20029;-86
2021/12/02 09:42:22;;;;;;;17.13;8.97;;;7.10;99.90;;;;;;10428026;28;20041;-86
2021/12/02 09:47:23;;;;;;;13.67;7.03;;;7.10;99.90;;;;;;10414918;28;20462;-84
2021/12/02 09:52:30;;;;;;;18.77;8.73;;;7.20;99.90;;;;;;10415105;28;20026;-87
2021/12/02 09:57:36;;;;;;;25.33;10.30;;;7.20;99.90;;;;;;10435684;28;20087;-85
2021/12/02 10:02:42;;;;;;;23.45;11.52;;;7.30;99.90;;;;;;10455892;28;20469;-85
2021/12/02 10:08:00;;;;;;;37.33;20.43;;;7.30;99.90;;;;;;10454182;28;20056;-84
2021/12/02 10:13:07;;;;;;;87.87;47.10;;;7.60;99.90;;;;;;10455336;28;20025;-86
2021/12/02 10:18:13;;;;;;;45.50;23.53;;;7.80;99.90;;;;;;10454799;28;20373;-85
2021/12/02 10:23:24;;;;;;;40.33;19.52;;;8.00;99.90;;;;;;10454482;28;20021;-86
2021/12/02 10:28:30;;;;;;;24.93;12.33;;;7.90;99.90;;;;;;10446725;28;20056;-86
2021/12/02 10:33:36;;;;;;;18.63;10.97;;;7.90;99.90;;;;;;10436538;28;20071;-86
2021/12/02 10:38:45;;;;;;;17.02;8.13;;;7.90;99.90;;;;;;10453965;28;20028;-84
2021/12/02 10:44:17;;;;;;;13.00;6.13;;;7.80;99.90;;;;;;10414713;28;20115;-84
2021/12/02 10:49:19;;;;;;;16.10;7.80;;;7.80;99.90;;;;;;10422239;28;20056;-86
2021/12/02 10:54:22;;;;;;;16.47;8.60;;;7.60;99.90;;;;;;10418821;28;20029;-86
2021/12/02 10:59:23;;;;;;;16.63;9.60;;;7.50;99.90;;;;;;10423491;28;20020;-87
2021/12/02 11:04:24;;;;;;;16.53;8.57;;;7.60;99.90;;;;;;10450785;28;20063;-86
2021/12/02 11:09:27;;;;;;;66.90;31.17;;;7.70;99.90;;;;;;10447118;28;20529;-87
2021/12/02 11:14:27;;;;;;;14.83;7.47;;;7.90;99.90;;;;;;10417508;28;20028;-86
2021/12/02 11:19:29;;;;;;;27.70;14.77;;;8.00;99.90;;;;;;10430335;28;20044;-86
2021/12/02 11:24:32;;;;;;;34.07;13.77;;;8.00;99.90;;;;;;10435363;28;20040;-87
2021/12/02 11:29:58;;;;;;;13.67;7.03;;;7.90;99.90;;;;;;10434702;28;20029;-85
2021/12/02 11:35:18;;;;;;;14.83;7.60;;;7.90;99.90;;;;;;10430524;28;20028;-87
2021/12/02 11:40:26;;;;;;;31.63;13.77;;;7.70;99.90;;;;;;10423888;28;20026;-88
2021/12/02 11:45:29;;;;;;;22.90;9.83;;;7.60;99.90;;;;;;10426405;28;20069;-86
2021/12/02 11:50:30;;;;;;;22.30;10.70;;;7.50;99.90;;;;;;10435049;28;20105;-86
2021/12/02 11:55:34;;;;;;;12.13;4.70;;;7.40;99.90;;;;;;10416732;28;20033;-87
2021/12/02 12:00:36;;;;;;;17.93;9.43;;;7.20;99.90;;;;;;10411484;28;20104;-87
2021/12/02 12:05:40;;;;;;;16.93;6.50;;;7.20;99.90;;;;;;10437869;28;20025;-86
2021/12/02 12:10:41;;;;;;;19.27;9.40;;;7.10;99.90;;;;;;10440732;28;20388;-87
2021/12/02 12:15:47;;;;;;;32.40;14.83;;;7.10;99.90;;;;;;10421065;28;20031;-88
2021/12/02 12:20:56;;;;;;;27.02;11.57;;;7.00;99.90;;;;;;10424221;28;20104;-89
2021/12/02 12:26:19;;;;;;;30.07;14.37;;;7.00;99.90;;;;;;10398662;28;20029;-87
2021/12/02 12:31:21;;;;;;;47.57;22.93;;;7.00;99.90;;;;;;10432766;28;20025;-87
2021/12/02 12:36:50;;;;;;;29.70;14.57;;;7.10;99.90;;;;;;10396949;28;20025;-87
2021/12/02 12:48:39;;;;;;;26.88;13.82;;;7.10;99.90;;;;;;10427212;28;20049;-90
2021/12/02 12:53:43;;;;;;;23.97;12.93;;;7.10;99.90;;;;;;10392381;28;20080;-87
2021/12/02 12:58:53;;;;;;;29.80;15.03;;;7.10;99.90;;;;;;10397157;28;20029;-90
2021/12/02 13:04:15;;;;;;;41.93;18.23;;;7.10;99.90;;;;;;10409072;28;20072;-90
2021/12/02 13:09:37;;;;;;;44.87;20.60;;;7.00;99.90;;;;;;10395258;28;20029;-89
2021/12/02 13:14:42;;;;;;;39.27;17.93;;;7.00;99.90;;;;;;10409433;28;20029;-89
2021/12/02 13:19:59;;;;;;;48.17;23.40;;;7.00;99.90;;;;;;10390177;28;20025;-88
2021/12/02 13:25:24;;;;;;;38.27;16.33;;;7.00;99.90;;;;;;10399692;28;20089;-89
2021/12/02 13:30:45;;;;;;;36.50;17.10;;;6.90;99.90;;;;;;10389341;28;20017;-86
2021/12/02 13:35:46;;;;;;;28.00;13.43;;;6.90;99.90;;;;;;10419582;28;20032;-88
2021/12/02 13:40:52;;;;;;;33.80;14.43;;;6.80;99.90;;;;;;10404087;23;20471;-88
2021/12/02 13:46:10;;;;;;;33.53;14.83;;;6.70;99.90;;;;;;10406373;28;20036;-87
2021/12/02 13:52:11;;;;;;;33.43;16.93;;;6.60;99.90;;;;;;10389518;28;20037;-86
2021/12/02 13:56:32;;;;;;;35.70;16.90;;;6.50;99.90;;;;;;10374689;28;20037;-87
2021/12/02 14:01:32;;;;;;;38.97;18.37;;;6.40;99.90;;;;;;10372407;28;20381;-86
2021/12/02 14:06:33;;;;;;;47.70;22.57;;;6.30;99.90;;;;;;10413496;28;20155;-88
2021/12/02 14:11:34;;;;;;;52.13;22.83;;;6.20;99.90;;;;;;10380763;28;20026;-89
2021/12/02 14:16:34;;;;;;;66.43;28.90;;;6.10;99.90;;;;;;10390052;28;20028;-85
2021/12/02 14:21:35;;;;;;;54.03;24.07;;;6.00;99.90;;;;;;10401970;28;20045;-88
2021/12/02 14:26:36;;;;;;;35.83;17.97;;;5.90;99.90;;;;;;10405750;28;20452;-88
2021/12/02 14:31:38;;;;;;;31.47;16.60;;;5.80;99.90;;;;;;10372367;28;20036;-87
2021/12/02 14:36:48;;;;;;;65.03;30.07;;;5.70;99.90;;;;;;10391573;28;20032;-86
2021/12/02 14:41:51;;;;;;;64.30;27.23;;;5.50;99.90;;;;;;10422671;28;20436;-87
2021/12/02 14:47:04;;;;;;;70.90;30.20;;;5.40;99.90;;;;;;10428774;28;20354;-88
2021/12/02 14:52:08;;;;;;;74.00;31.27;;;5.40;99.90;;;;;;10423137;28;20079;-86
2021/12/02 14:57:44;;;;;;;136.83;71.87;;;5.20;99.90;;;;;;10424146;28;20017;-86
2021/12/02 15:02:46;;;;;;;90.37;43.70;;;5.10;99.90;;;;;;10413624;28;20591;-86
2021/12/02 15:08:04;;;;;;;105.30;45.73;;;5.00;99.90;;;;;;10411572;28;20036;-87
2021/12/02 15:13:10;;;;;;;112.10;50.47;;;4.90;99.90;;;;;;10423934;28;20469;-87
2021/12/02 15:18:11;;;;;;;103.37;48.17;;;4.90;99.90;;;;;;10423097;28;20033;-87
2021/12/02 15:23:20;;;;;;;137.80;67.37;;;4.80;99.90;;;;;;10420842;28;20464;-87
2021/12/02 15:28:24;;;;;;;78.63;36.67;;;4.70;99.90;;;;;;10410521;28;20029;-87
2021/12/02 15:33:28;;;;;;;74.87;35.30;;;4.60;99.90;;;;;;10420605;28;20029;-88
2021/12/02 15:38:29;;;;;;;67.70;31.83;;;4.40;99.90;;;;;;10423972;28;20404;-88
2021/12/02 15:43:47;;;;;;;122.20;52.87;;;4.30;99.90;;;;;;10442953;28;20045;-88
2021/12/02 15:48:50;;;;;;;107.83;49.43;;;4.30;99.90;;;;;;10434141;28;20027;-88
2021/12/02 15:53:51;;;;;;;117.87;52.47;;;4.10;99.90;;;;;;10431892;28;20024;-87
2021/12/02 15:58:52;;;;;;;110.40;50.40;;;3.80;99.90;;;;;;10446150;28;20127;-87
2021/12/02 16:03:58;;;;;;;103.53;47.87;;;3.60;99.90;;;;;;10427654;28;20037;-88
2021/12/02 16:09:11;;;;;;;82.07;33.20;;;3.40;99.90;;;;;;10438572;28;20025;-88
2021/12/02 16:14:12;;;;;;;45.90;21.63;;;3.30;99.90;;;;;;10426291;28;20025;-87
2021/12/02 16:19:13;;;;;;;71.07;29.73;;;3.30;99.90;;;;;;10426069;28;20557;-87
2021/12/02 16:24:13;;;;;;;54.43;26.67;;;3.30;99.90;;;;;;10423215;28;20033;-88
2021/12/02 16:29:14;;;;;;;74.47;33.80;;;3.40;99.90;;;;;;10429908;28;20052;-88
2021/12/02 16:34:15;;;;;;;194.33;75.90;;;3.50;99.90;;;;;;10433535;28;20025;-88
2021/12/02 16:39:19;;;;;;;214.17;85.13;;;3.60;99.90;;;;;;10412923;28;20152;-86
2021/12/02 16:44:20;;;;;;;213.23;82.97;;;3.60;99.90;;;;;;10420321;28;20037;-87
2021/12/02 16:49:25;;;;;;;240.80;101.00;;;3.50;99.90;;;;;;10442853;28;20029;-87
2021/12/02 16:54:25;;;;;;;214.57;92.80;;;3.30;99.90;;;;;;10444532;28;20023;-86
2021/12/02 16:59:26;;;;;;;191.33;88.60;;;3.20;99.90;;;;;;10444004;28;20036;-84
2021/12/02 17:04:28;;;;;;;203.47;88.83;;;3.00;99.90;;;;;;10439803;28;20033;-84
2021/12/02 17:09:29;;;;;;;263.77;109.17;;;2.90;99.90;;;;;;10444635;28;20079;-87
2021/12/02 17:14:29;;;;;;;260.37;112.13;;;2.70;99.90;;;;;;10438080;28;20125;-85
2021/12/02 17:19:30;;;;;;;172.37;76.00;;;2.60;99.90;;;;;;10447727;28;20469;-85
2021/12/02 17:24:31;;;;;;;132.23;58.73;;;2.60;99.90;;;;;;10450832;28;20063;-85
2021/12/02 17:29:32;;;;;;;131.57;58.80;;;2.50;99.90;;;;;;10450869;28;20377;-84
2021/12/02 17:34:33;;;;;;;137.63;58.73;;;2.60;99.90;;;;;;10448836;28;20140;-84
2021/12/02 17:39:34;;;;;;;84.80;37.13;;;2.70;99.90;;;;;;10450853;28;20556;-82
2021/12/02 17:44:35;;;;;;;76.03;32.43;;;2.80;99.90;;;;;;10448579;28;20127;-83
2021/12/02 17:49:36;;;;;;;41.70;18.70;;;3.00;99.90;;;;;;10451832;28;20040;-83
2021/12/02 17:54:38;;;;;;;62.43;27.40;;;3.20;99.90;;;;;;10452271;28;20037;-83
2021/12/02 17:59:40;;;;;;;36.60;17.23;;;3.20;99.90;;;;;;10449787;28;20025;-83
2021/12/02 18:04:42;;;;;;;32.33;14.60;;;3.10;99.90;;;;;;10445367;28;20064;-83
2021/12/02 18:09:43;;;;;;;33.73;15.37;;;3.00;99.90;;;;;;10448589;28;20032;-85
2021/12/02 18:14:44;;;;;;;56.37;25.63;;;2.90;99.90;;;;;;10445884;28;20029;-85
2021/12/02 18:19:45;;;;;;;87.87;38.90;;;2.90;99.90;;;;;;10447336;28;20029;-85
2021/12/02 18:24:48;;;;;;;122.13;52.80;;;2.90;99.90;;;;;;10436402;28;20044;-85
2021/12/02 18:29:51;;;;;;;108.13;45.73;;;2.90;99.90;;;;;;10434005;28;20025;-84
2021/12/02 18:34:52;;;;;;;133.87;58.20;;;2.90;99.90;;;;;;10410768;28;20033;-85
2021/12/02 18:39:55;;;;;;;137.83;55.70;;;2.90;99.90;;;;;;10423565;28;20412;-85
2021/12/02 18:44:58;;;;;;;131.00;54.10;;;2.90;99.90;;;;;;10418857;28;20055;-85
2021/12/02 18:49:59;;;;;;;140.47;55.97;;;2.90;99.90;;;;;;10411750;28;20061;-84
2021/12/02 18:55:00;;;;;;;101.10;38.97;;;2.90;99.90;;;;;;10409492;28;20137;-85
2021/12/02 19:00:07;;;;;;;71.27;28.47;;;3.00;99.90;;;;;;10417805;28;20465;-85
2021/12/02 19:05:26;;;;;;;49.43;21.33;;;3.10;99.90;;;;;;10421614;28;20041;-85
2021/12/02 19:26:42;;;;;;;20.87;8.73;;;3.10;99.90;;;;;;10444034;28;20044;-86
2021/12/02 19:31:47;;;;;;;16.40;6.77;;;3.10;99.90;;;;;;10441357;28;20545;-85
2021/12/02 19:36:47;;;;;;;16.50;7.40;;;3.00;99.90;;;;;;10450946;28;20029;-86
2021/12/02 19:41:48;;;;;;;18.10;7.83;;;2.90;99.90;;;;;;10448391;28;20052;-85
2021/12/02 19:46:49;;;;;;;18.80;7.97;;;2.80;99.90;;;;;;10430081;28;20029;-85
2021/12/02 19:51:50;;;;;;;23.33;7.53;;;2.70;99.90;;;;;;10443405;28;20044;-85
2021/12/02 19:56:53;;;;;;;22.00;8.33;;;2.60;99.90;;;;;;10448201;28;20029;-85
2021/12/02 20:01:55;;;;;;;16.17;6.53;;;2.50;99.90;;;;;;10441552;28;20079;-86
2021/12/02 20:06:57;;;;;;;17.67;5.70;;;2.50;99.90;;;;;;10445862;28;20588;-85
2021/12/02 20:11:58;;;;;;;19.13;6.03;;;2.40;99.90;;;;;;10445295;28;20021;-85
2021/12/02 20:17:03;;;;;;;16.07;5.60;;;2.40;99.90;;;;;;10443605;28;20033;-86
2021/12/02 20:22:05;;;;;;;17.87;5.57;;;2.50;99.90;;;;;;10442133;28;20456;-86
2021/12/02 20:27:06;;;;;;;14.90;5.97;;;2.50;99.90;;;;;;10444350;28;20024;-89
2021/12/02 20:32:07;;;;;;;18.63;5.80;;;2.50;99.90;;;;;;10431712;28;20472;-90
2021/12/02 20:37:08;;;;;;;14.07;4.93;;;2.50;99.90;;;;;;10439430;28;20039;-89
2021/12/02 20:42:09;;;;;;;14.77;5.47;;;2.50;99.90;;;;;;10450043;28;20049;-89
2021/12/02 20:47:20;;;;;;;17.07;4.40;;;2.50;99.90;;;;;;10445990;28;20037;-89
2021/12/02 20:52:31;;;;;;;12.80;4.23;;;2.40;99.90;;;;;;10422739;28;20063;-89
2021/12/02 20:57:34;;;;;;;12.50;4.07;;;2.40;99.90;;;;;;10435668;28;20047;-88
2021/12/02 21:02:35;;;;;;;12.87;4.10;;;2.40;99.90;;;;;;10447914;28;20492;-89
2021/12/02 21:07:37;;;;;;;12.60;4.30;;;2.40;99.90;;;;;;10422395;28;20083;-91
2021/12/02 21:12:38;;;;;;;10.83;3.77;;;2.40;99.90;;;;;;10448232;28;20468;-90
2021/12/02 21:17:39;;;;;;;8.23;3.47;;;2.40;99.90;;;;;;10446550;28;20074;-89
2021/12/02 21:22:40;;;;;;;9.13;3.70;;;2.30;99.90;;;;;;10433341;28;20507;-89
2021/12/02 21:27:41;;;;;;;11.93;3.97;;;2.20;99.90;;;;;;10437904;28;20068;-90
2021/12/02 21:32:42;;;;;;;7.87;3.50;;;2.10;99.90;;;;;;10438963;28;20116;-89
2021/12/02 21:37:46;;;;;;;16.10;4.83;;;2.10;99.90;;;;;;10452341;28;20029;-89
2021/12/02 21:42:47;;;;;;;12.67;4.47;;;2.00;99.90;;;;;;10435960;28;20438;-89
2021/12/02 21:47:48;;;;;;;11.63;4.10;;;2.00;99.90;;;;;;10429103;28;20481;-89
2021/12/02 21:52:49;;;;;;;11.67;4.47;;;2.00;99.90;;;;;;10459280;28;20053;-89
2021/12/02 21:57:50;;;;;;;10.93;4.43;;;1.90;99.90;;;;;;10428943;28;20097;-89
2021/12/02 22:02:51;;;;;;;14.70;4.63;;;1.90;99.90;;;;;;10446846;28;20518;-90
2021/12/02 22:07:52;;;;;;;13.90;5.03;;;1.80;99.90;;;;;;10419727;28;20033;-88
2021/12/02 22:12:53;;;;;;;10.90;4.70;;;1.80;99.90;;;;;;10455917;28;20036;-90
2021/12/02 22:17:54;;;;;;;11.10;4.77;;;1.80;99.90;;;;;;10444791;28;20036;-89
2021/12/02 22:22:55;;;;;;;11.70;3.93;;;1.70;99.90;;;;;;10451139;28;20959;-89
2021/12/02 22:27:56;;;;;;;12.57;5.00;;;1.70;99.90;;;;;;10413833;28;20009;-89
2021/12/02 22:32:57;;;;;;;13.13;3.97;;;1.60;99.90;;;;;;10449809;28;20032;-89
2021/12/02 22:37:59;;;;;;;14.13;4.57;;;1.70;99.90;;;;;;10445865;28;20037;-90
2021/12/02 22:43:01;;;;;;;9.87;4.20;;;1.70;99.90;;;;;;10444053;28;20647;-89
2021/12/02 22:48:02;;;;;;;11.40;4.17;;;1.60;99.90;;;;;;10437259;28;20037;-89
2021/12/02 22:53:02;;;;;;;8.93;3.60;;;1.60;99.90;;;;;;10453062;28;20033;-90
2021/12/02 22:58:05;;;;;;;12.83;4.63;;;1.60;99.90;;;;;;10438526;28;20025;-89
2021/12/02 23:03:06;;;;;;;10.47;4.53;;;1.60;99.90;;;;;;10434731;28;20089;-88
2021/12/02 23:08:07;;;;;;;11.13;3.83;;;1.60;99.90;;;;;;10452793;28;20431;-90
2021/12/02 23:13:09;;;;;;;12.93;3.50;;;1.60;99.90;;;;;;10422163;28;20033;-89
2021/12/02 23:18:10;;;;;;;10.33;3.87;;;1.60;99.90;;;;;;10430306;28;20098;-89
2021/12/02 23:23:11;;;;;;;11.73;4.43;;;1.60;99.90;;;;;;10437229;28;20238;-89
2021/12/02 23:28:16;;;;;;;8.27;3.80;;;1.50;99.90;;;;;;10421203;28;20041;-90
2021/12/02 23:33:26;;;;;;;9.63;3.63;;;1.60;99.90;;;;;;10436824;28;20034;-89
2021/12/02 23:38:30;;;;;;;7.93;3.60;;;1.60;99.90;;;;;;10419096;28;20501;-87
2021/12/02 23:43:30;;;;;;;7.73;3.40;;;1.50;99.90;;;;;;10420818;28;20052;-87
2021/12/02 23:48:33;;;;;;;8.53;3.03;;;1.50;99.90;;;;;;10435577;28;20374;-87
2021/12/02 23:53:35;;;;;;;7.97;4.13;;;1.40;99.90;;;;;;10427934;28;20029;-88
2021/12/02 23:58:36;;;;;;;6.07;2.80;;;1.50;99.90;;;;;;10450051;28;20032;-87
